Aviation Digital Data Service (ADDS)

Output produced by TAFs form (0552 UTC 25 February 2018)
found at http://aviationweather.gov/adds/tafs/
 
METAR text: WIII 250530Z 34011KT 9999 SCT020 30/25 Q1009 NOSIG
Conditions at: WIII (SOEKARNO-HATTA I, ID) observed 0530 UTC 25 February 2018
Temperature: 30.0°C (86°F)
Dewpoint: 25.0°C (77°F) [RH = 75%]
Pressure (altimeter): 29.79 inches Hg (1009.0 mb)
Winds: from the NNW (340 degrees) at 13 MPH (11 knots; 5.7 m/s)
Visibility: 6 or more miles (10+ km)
Ceiling: at least 12,000 feet AGL
Clouds: scattered clouds at 2000 feet AGL
Weather: no significant weather observed at this time

Forecast for: WIII (SOEKARNO-HATTA I, ID)
Text: TAF WIII 250500Z 2506/2612 33010KT 9000 SCT020
Forecast period: 0600 to 1200 UTC 25 February 2018
Forecast type: FROM: standard forecast or significant change
Winds: from the NNW (330 degrees) at 12 MPH (10 knots; 5.2 m/s)
Visibility: 6 miles (9 km)
Clouds: scattered clouds at 2000 feet AGL
Weather: no significant weather forecast for this period
Text: BECMG 2512/2514 26005KT 5000 HZ
Forecast period: 1200 UTC 25 February 2018 to 1200 UTC 26 February 2018
Forecast type: BECOMING: Conditions expected to become as follows by 1400 UTC 25 February 2018
Winds: from the W (260 degrees) at 6 MPH (5 knots; 2.6 m/s)
Visibility: 3 miles (5 km)
Clouds: scattered clouds at 2000 feet AGL
Weather: HZ  (haze)